createdAt,value
2017-12-30T00:00:31.724Z,99960.59
2017-12-30T00:02:59.201Z,99955.47
2017-12-30T00:05:26.645Z,99952.81
2017-12-30T00:07:54.076Z,99953.13
2017-12-30T00:10:21.482Z,99954.45
2017-12-30T00:12:48.899Z,99951.37
2017-12-30T00:15:16.336Z,99956.18
2017-12-30T00:17:43.828Z,99947.59
2017-12-30T00:20:11.299Z,99956.85
2017-12-30T00:22:38.751Z,99956.19
2017-12-30T00:25:06.166Z,99955.08
2017-12-30T00:27:33.575Z,99960.24
2017-12-30T00:30:01.041Z,99961.17
2017-12-30T00:32:28.456Z,99957.09
2017-12-30T00:34:55.950Z,99959.95
2017-12-30T00:37:23.380Z,99963.69
2017-12-30T00:39:50.795Z,99961.44
2017-12-30T00:42:18.279Z,99967.44
2017-12-30T00:44:45.767Z,99974.03
2017-12-30T00:47:13.188Z,99968.14
2017-12-30T00:49:40.599Z,99958.68
2017-12-30T00:52:08.027Z,99960.67
2017-12-30T00:54:35.434Z,99959.59
2017-12-30T00:57:02.851Z,99957.26
2017-12-30T00:59:30.294Z,99960.52
2017-12-30T01:01:57.692Z,99962.27
2017-12-30T01:04:25.127Z,99962.94
2017-12-30T01:06:52.534Z,99961.03
2017-12-30T01:09:19.942Z,99960.58
2017-12-30T01:11:47.386Z,99961.25
2017-12-30T01:14:14.794Z,99962.02
2017-12-30T01:16:42.217Z,99957.10
2017-12-30T01:19:09.701Z,99954.76
2017-12-30T01:21:37.110Z,99951.84
2017-12-30T01:24:04.569Z,99949.88
2017-12-30T01:26:32.028Z,99955.92
2017-12-30T01:28:59.441Z,99956.84
2017-12-30T01:31:26.847Z,99949.02
2017-12-30T01:33:54.291Z,99953.57
2017-12-30T01:36:21.702Z,99955.66
2017-12-30T01:38:49.102Z,99960.47
2017-12-30T01:41:16.552Z,99962.52
2017-12-30T01:43:43.963Z,99960.21
2017-12-30T01:46:11.470Z,99954.48
2017-12-30T01:51:39.804Z,99949.83
2017-12-30T01:54:07.198Z,99949.41
2017-12-30T01:56:34.607Z,99953.62
2017-12-30T01:59:02.011Z,99959.09
2017-12-30T02:01:29.450Z,99965.06
2017-12-30T02:03:56.892Z,99961.47
2017-12-30T02:06:24.296Z,99958.97
2017-12-30T02:08:51.763Z,99960.86
2017-12-30T02:11:19.212Z,99959.61
2017-12-30T02:13:46.615Z,99967.81
2017-12-30T02:16:14.056Z,99969.99
2017-12-30T02:18:41.470Z,99960.64
2017-12-30T02:21:08.871Z,99957.70
2017-12-30T02:23:36.309Z,99961.06
2017-12-30T02:26:03.710Z,99963.05
2017-12-30T02:28:31.219Z,99967.21
2017-12-30T02:30:58.669Z,99973.72
2017-12-30T02:33:26.078Z,99965.16
2017-12-30T02:35:53.592Z,99967.31
2017-12-30T02:38:21.044Z,99970.89
2017-12-30T02:40:48.454Z,99970.28
2017-12-30T02:43:15.855Z,99962.55
2017-12-30T02:45:43.285Z,99955.50
2017-12-30T02:48:10.727Z,99964.74
2017-12-30T02:50:38.136Z,99969.56
2017-12-30T02:53:05.539Z,99965.88
2017-12-30T02:55:32.959Z,99968.38
2017-12-30T02:58:00.376Z,99957.73
2017-12-30T03:00:27.851Z,99957.71
2017-12-30T03:02:55.279Z,99959.96
2017-12-30T03:05:22.687Z,99953.38
2017-12-30T03:07:50.119Z,99961.48
2017-12-30T03:10:17.571Z,99961.82
2017-12-30T03:12:44.970Z,99963.61
2017-12-30T03:15:12.394Z,99966.52
2017-12-30T03:17:39.845Z,99954.49
2017-12-30T03:20:07.262Z,99949.33
2017-12-30T03:22:34.758Z,99953.31
2017-12-30T03:25:02.178Z,99950.38
2017-12-30T03:27:29.594Z,99950.30
2017-12-30T03:29:57.032Z,99947.48
2017-12-30T03:32:24.435Z,99952.34
2017-12-30T03:34:51.849Z,99954.62
2017-12-30T03:37:19.287Z,99949.05
2017-12-30T03:39:46.691Z,99942.64
2017-12-30T03:42:14.090Z,99945.03
2017-12-30T03:44:41.576Z,99938.36
2017-12-30T03:47:08.983Z,99933.61
2017-12-30T03:49:36.396Z,99941.59
2017-12-30T03:52:03.836Z,99934.73
2017-12-30T03:54:31.292Z,99945.26
2017-12-30T03:56:58.702Z,99942.91
2017-12-30T03:59:26.103Z,99940.48
2017-12-30T04:01:53.554Z,99944.77
2017-12-30T04:04:21.023Z,99941.06
2017-12-30T04:06:48.491Z,99934.06
2017-12-30T04:09:15.889Z,99941.96
2017-12-30T04:11:43.387Z,99938.63
2017-12-30T04:14:10.839Z,99944.17
2017-12-30T04:16:38.303Z,99943.46
2017-12-30T04:19:05.760Z,99939.47
2017-12-30T04:21:33.192Z,99939.79
2017-12-30T04:24:00.670Z,99939.28
2017-12-30T04:26:28.090Z,99939.22
2017-12-30T04:28:55.515Z,99928.50
2017-12-30T04:31:22.927Z,99925.34
2017-12-30T04:33:50.396Z,99919.17
2017-12-30T04:36:17.823Z,99920.80
2017-12-30T04:38:45.310Z,99915.78
2017-12-30T04:41:12.774Z,99914.59
2017-12-30T04:43:40.224Z,99910.19
2017-12-30T04:46:07.663Z,99910.33
2017-12-30T04:48:35.087Z,99905.45
2017-12-30T04:51:02.491Z,99913.72
2017-12-30T04:53:29.908Z,99916.28
2017-12-30T04:55:57.330Z,99922.50
2017-12-30T04:58:24.758Z,99921.07
2017-12-30T05:00:52.155Z,99925.48
2017-12-30T05:03:19.592Z,99908.16
2017-12-30T05:05:46.986Z,99913.73
2017-12-30T05:08:14.393Z,99908.64
2017-12-30T05:10:41.801Z,99910.28
2017-12-30T05:13:09.309Z,99905.77
2017-12-30T05:15:36.723Z,99911.20
2017-12-30T05:18:04.202Z,99908.64
2017-12-30T05:20:31.612Z,99903.63
2017-12-30T05:22:59.021Z,99901.87
2017-12-30T05:25:26.439Z,99895.77
2017-12-30T05:27:53.839Z,99903.21
2017-12-30T05:30:21.303Z,99921.97
2017-12-30T05:32:48.707Z,99925.33
2017-12-30T05:35:16.212Z,99923.72
2017-12-30T05:37:43.656Z,99930.69
2017-12-30T05:40:11.052Z,99937.97
2017-12-30T05:42:38.461Z,99939.75
2017-12-30T05:45:05.892Z,99939.06
2017-12-30T05:47:33.302Z,99949.63
2017-12-30T05:50:00.706Z,99936.27
2017-12-30T05:52:28.120Z,99946.03
2017-12-30T05:54:55.516Z,99955.47
2017-12-30T05:57:22.931Z,99947.34
2017-12-30T05:59:50.337Z,99937.42
2017-12-30T06:02:17.834Z,99932.23
2017-12-30T06:04:45.241Z,99931.20
2017-12-30T06:07:12.738Z,99938.11
2017-12-30T06:09:40.160Z,99940.09
2017-12-30T06:12:07.651Z,99942.38
2017-12-30T06:14:35.102Z,99935.98
2017-12-30T06:17:02.517Z,99927.85
2017-12-30T06:19:29.916Z,99919.71
2017-12-30T06:21:57.340Z,99923.02
2017-12-30T06:24:24.754Z,99923.15
2017-12-30T06:26:52.146Z,99922.30
2017-12-30T06:29:19.578Z,99927.02
2017-12-30T06:31:47.010Z,99925.44
2017-12-30T06:34:14.418Z,99925.15
2017-12-30T06:36:41.905Z,99931.92
2017-12-30T06:39:09.268Z,99929.49
2017-12-30T06:41:36.661Z,99928.97
2017-12-30T06:44:04.087Z,99940.59
2017-12-30T06:46:31.492Z,99942.09
2017-12-30T06:48:58.990Z,99943.75
2017-12-30T06:51:26.448Z,99941.14
2017-12-30T06:53:53.879Z,99938.83
2017-12-30T06:56:21.283Z,99936.82
2017-12-30T06:58:48.688Z,99938.77
2017-12-30T07:01:16.166Z,99936.75
2017-12-30T07:03:43.631Z,99930.90
2017-12-30T07:06:11.065Z,99925.41
2017-12-30T07:08:38.568Z,99921.78
2017-12-30T07:11:05.963Z,99931.33
2017-12-30T07:13:33.460Z,99930.10
2017-12-30T07:16:00.887Z,99926.23
2017-12-30T07:18:28.295Z,99923.23
2017-12-30T07:20:55.705Z,99915.44
2017-12-30T07:23:23.134Z,99916.48
2017-12-30T07:25:50.547Z,99925.11
2017-12-30T07:28:17.958Z,99920.34
2017-12-30T07:30:45.366Z,99914.80
2017-12-30T07:33:12.787Z,99925.09
2017-12-30T07:35:40.215Z,99915.46
2017-12-30T07:38:07.622Z,99913.48
2017-12-30T07:40:35.039Z,99916.59
2017-12-30T07:43:02.531Z,99925.47
2017-12-30T07:45:29.930Z,99918.51
2017-12-30T07:47:57.346Z,99921.88
2017-12-30T07:50:24.787Z,99913.12
2017-12-30T07:52:52.183Z,99918.17
2017-12-30T07:55:19.616Z,99910.63
2017-12-30T07:57:47.065Z,99905.34
2017-12-30T08:00:14.471Z,99903.95
2017-12-30T08:02:41.988Z,99896.61
2017-12-30T08:05:09.445Z,99903.39
2017-12-30T08:07:36.903Z,99904.73
2017-12-30T08:10:04.322Z,99908.27
2017-12-30T08:12:31.714Z,99905.72
2017-12-30T08:14:59.179Z,99898.95
2017-12-30T08:17:26.582Z,99897.44
2017-12-30T08:19:53.988Z,99895.23
2017-12-30T08:22:21.402Z,99896.82
2017-12-30T08:24:48.798Z,99886.59
2017-12-30T08:27:16.215Z,99889.52
2017-12-30T08:29:43.703Z,99884.86
2017-12-30T08:32:11.108Z,99888.23
2017-12-30T08:34:38.625Z,99889.70
2017-12-30T08:37:06.038Z,99892.88
2017-12-30T08:39:33.447Z,99893.07
2017-12-30T08:42:00.882Z,99893.70
2017-12-30T08:44:28.310Z,99883.06
2017-12-30T08:46:55.742Z,99888.00
2017-12-30T08:49:23.142Z,99888.93
2017-12-30T08:51:50.570Z,99887.67
2017-12-30T08:54:18.067Z,99880.10
2017-12-30T08:56:45.522Z,99873.53
2017-12-30T08:59:13.073Z,99876.66
2017-12-30T09:01:40.469Z,99879.87
2017-12-30T09:04:07.863Z,99873.88
2017-12-30T09:06:35.450Z,99879.58
2017-12-30T09:09:02.851Z,99884.67
2017-12-30T09:11:30.273Z,99875.55
2017-12-30T09:13:57.823Z,99874.66
2017-12-30T09:16:25.248Z,99870.94
2017-12-30T09:18:52.638Z,99873.95
2017-12-30T09:21:20.054Z,99867.89
2017-12-30T09:23:47.478Z,99863.88
2017-12-30T09:26:14.883Z,99859.31
2017-12-30T09:28:42.282Z,99863.98
2017-12-30T09:31:09.752Z,99858.52
2017-12-30T09:33:37.150Z,99861.94
2017-12-30T09:36:04.556Z,99852.78
2017-12-30T09:38:31.983Z,99846.70
2017-12-30T09:40:59.441Z,99840.71
2017-12-30T09:43:26.902Z,99834.13
2017-12-30T09:45:54.316Z,99836.20
2017-12-30T09:48:21.763Z,99832.41
2017-12-30T09:50:49.167Z,99836.28
2017-12-30T09:53:16.570Z,99830.63
2017-12-30T09:55:44.072Z,99822.52
2017-12-30T09:58:11.466Z,99820.85
2017-12-30T10:00:38.917Z,99816.75
2017-12-30T10:03:06.342Z,99812.76
2017-12-30T10:05:33.805Z,99813.14
2017-12-30T10:08:01.267Z,99813.05
2017-12-30T10:10:28.663Z,99799.16
2017-12-30T10:12:56.066Z,99803.63
2017-12-30T10:15:23.495Z,99793.84
2017-12-30T10:17:50.900Z,99791.68
2017-12-30T10:20:18.344Z,99786.51
2017-12-30T10:22:45.757Z,99781.36
2017-12-30T10:25:13.149Z,99782.19
2017-12-30T10:27:40.571Z,99772.49
2017-12-30T10:30:07.975Z,99770.20
2017-12-30T10:32:35.433Z,99768.06
2017-12-30T10:35:02.846Z,99754.34
2017-12-30T10:37:30.343Z,99749.78
2017-12-30T10:39:57.778Z,99748.34
2017-12-30T10:42:25.182Z,99739.16
2017-12-30T10:44:52.804Z,99742.78
2017-12-30T10:47:20.216Z,99738.05
2017-12-30T10:49:47.618Z,99729.56
2017-12-30T10:52:15.087Z,99722.28
2017-12-30T10:54:42.518Z,99719.18
2017-12-30T10:57:09.919Z,99718.56
2017-12-30T10:59:37.341Z,99716.63
2017-12-30T11:02:04.820Z,99711.56
2017-12-30T11:04:32.214Z,99709.71
2017-12-30T11:06:59.618Z,99701.59
2017-12-30T11:09:27.895Z,99701.16
2017-12-30T11:11:55.299Z,99695.48
2017-12-30T11:14:22.695Z,99694.03
2017-12-30T11:16:50.106Z,99678.95
2017-12-30T11:19:17.560Z,99681.97
2017-12-30T11:21:44.912Z,99672.09
2017-12-30T11:24:12.351Z,99671.14
2017-12-30T11:26:39.792Z,99664.42
2017-12-30T11:29:07.218Z,99656.16
2017-12-30T11:31:34.628Z,99656.27
2017-12-30T11:34:02.016Z,99646.00
2017-12-30T11:36:29.563Z,99645.31
2017-12-30T11:38:56.955Z,99638.20
2017-12-30T11:41:24.365Z,99639.16
2017-12-30T11:43:51.799Z,99632.80
2017-12-30T11:46:19.338Z,99623.27
2017-12-30T11:48:46.739Z,99614.76
2017-12-30T11:51:14.141Z,99609.04
2017-12-30T11:53:41.552Z,99611.48
2017-12-30T11:56:09.063Z,99604.03
2017-12-30T11:58:36.461Z,99603.59
2017-12-30T12:01:03.874Z,99597.50
2017-12-30T12:03:31.295Z,99591.33
2017-12-30T12:05:58.701Z,99582.99
2017-12-30T12:08:26.135Z,99576.96
2017-12-30T12:10:53.598Z,99570.95
2017-12-30T12:13:21.062Z,99562.51
2017-12-30T12:15:48.460Z,99552.30
2017-12-30T12:18:15.978Z,99545.81
2017-12-30T12:20:43.375Z,99541.55
2017-12-30T12:23:10.879Z,99533.30
2017-12-30T12:25:38.298Z,99533.54
2017-12-30T12:28:05.699Z,99532.20
2017-12-30T12:30:33.103Z,99517.13
2017-12-30T12:33:00.523Z,99518.45
2017-12-30T12:35:27.967Z,99516.18
2017-12-30T12:37:55.382Z,99521.63
2017-12-30T12:40:22.875Z,99516.80
2017-12-30T12:42:50.274Z,99512.59
2017-12-30T12:45:17.690Z,99504.36
2017-12-30T12:47:45.093Z,99490.43
2017-12-30T12:50:12.502Z,99486.53
2017-12-30T12:52:39.963Z,99491.25
2017-12-30T12:55:07.358Z,99481.50
2017-12-30T12:57:34.784Z,99471.80
2017-12-30T13:00:02.197Z,99469.61
2017-12-30T13:02:29.607Z,99463.84
2017-12-30T13:04:57.023Z,99466.97
2017-12-30T13:07:24.468Z,99462.33
2017-12-30T13:09:51.874Z,99452.67
2017-12-30T13:12:19.275Z,99454.37
2017-12-30T13:14:46.870Z,99451.48
2017-12-30T13:17:14.267Z,99451.28
2017-12-30T13:19:41.684Z,99457.17
2017-12-30T13:22:09.109Z,99447.98
2017-12-30T13:24:36.510Z,99446.77
2017-12-30T13:27:03.910Z,99443.20
2017-12-30T13:29:31.338Z,99442.47
2017-12-30T13:31:58.754Z,99438.49
2017-12-30T13:34:26.213Z,99435.69
2017-12-30T13:36:53.614Z,99432.33
2017-12-30T13:39:21.030Z,99420.91
2017-12-30T13:41:48.467Z,99420.78
2017-12-30T13:44:15.872Z,99401.24
2017-12-30T13:46:43.279Z,99407.81
2017-12-30T13:49:10.723Z,99417.28
2017-12-30T13:51:38.224Z,99407.64
2017-12-30T13:54:05.624Z,99411.18
2017-12-30T13:56:33.134Z,99404.94
2017-12-30T13:59:00.535Z,99394.38
2017-12-30T14:01:27.926Z,99392.95
2017-12-30T14:03:55.371Z,99412.82
2017-12-30T14:06:22.845Z,99415.33
2017-12-30T14:08:50.311Z,99406.89
2017-12-30T14:11:17.730Z,99408.55
2017-12-30T14:13:45.139Z,99409.85
2017-12-30T14:16:12.578Z,99404.48
2017-12-30T14:18:39.996Z,99393.31
2017-12-30T14:21:07.391Z,99388.56
2017-12-30T14:23:34.851Z,99383.33
2017-12-30T14:26:02.319Z,99375.66
2017-12-30T14:28:29.747Z,99364.01
2017-12-30T14:30:57.184Z,99364.50
2017-12-30T14:33:24.583Z,99365.64
2017-12-30T14:35:52.016Z,99344.53
2017-12-30T14:38:19.455Z,99339.41
2017-12-30T14:40:46.860Z,99338.31
2017-12-30T14:43:14.275Z,99335.67
2017-12-30T14:45:41.702Z,99326.25
2017-12-30T14:48:09.111Z,99325.16
2017-12-30T14:50:36.516Z,99330.45
2017-12-30T14:53:03.942Z,99318.41
2017-12-30T14:55:31.355Z,99314.10
2017-12-30T14:57:58.758Z,99314.02
2017-12-30T15:00:26.187Z,99313.52
2017-12-30T15:02:53.599Z,99310.76
2017-12-30T15:05:21.101Z,99313.88
2017-12-30T15:07:48.706Z,99301.22
2017-12-30T15:10:16.125Z,99299.59
2017-12-30T15:12:43.598Z,99297.55
2017-12-30T15:15:11.046Z,99298.42
2017-12-30T15:17:38.465Z,99298.25
2017-12-30T15:20:05.880Z,99294.88
2017-12-30T15:22:33.308Z,99295.51
2017-12-30T15:25:00.727Z,99287.42
2017-12-30T15:27:28.149Z,99295.14
2017-12-30T15:29:55.595Z,99277.24
2017-12-30T15:32:23.006Z,99276.92
2017-12-30T15:34:50.443Z,99267.18
2017-12-30T15:37:17.846Z,99261.92
2017-12-30T15:39:45.323Z,99258.55
2017-12-30T15:42:12.859Z,99250.81
2017-12-30T15:44:40.260Z,99249.56
2017-12-30T15:47:07.777Z,99240.73
2017-12-30T15:49:35.260Z,99237.73
2017-12-30T15:52:02.671Z,99235.12
2017-12-30T15:54:30.118Z,99236.43
2017-12-30T15:56:57.535Z,99230.77
2017-12-30T15:59:24.946Z,99223.55
2017-12-30T16:01:52.383Z,99221.80
2017-12-30T16:04:19.882Z,99204.70
2017-12-30T16:06:47.318Z,99196.03
2017-12-30T16:09:15.687Z,99202.44
2017-12-30T16:11:43.119Z,99195.55
2017-12-30T16:14:10.562Z,99192.66
2017-12-30T16:16:37.966Z,99195.51
2017-12-30T16:19:05.382Z,99189.92
2017-12-30T16:21:32.794Z,99187.69
2017-12-30T16:24:00.214Z,99185.66
2017-12-30T16:26:27.722Z,99178.53
2017-12-30T16:28:55.182Z,99168.39
2017-12-30T16:31:22.841Z,99172.72
2017-12-30T16:33:50.252Z,99174.87
2017-12-30T16:36:17.694Z,99182.94
2017-12-30T16:38:45.131Z,99184.66
2017-12-30T16:41:12.553Z,99183.52
2017-12-30T16:43:39.950Z,99175.40
2017-12-30T16:46:07.597Z,99187.20
2017-12-30T16:48:35.050Z,99158.13
2017-12-30T16:51:02.471Z,99171.95
2017-12-30T16:53:29.895Z,99163.41
2017-12-30T16:55:57.311Z,99163.89
2017-12-30T16:58:24.723Z,99163.08
2017-12-30T17:00:52.193Z,99160.36
2017-12-30T17:03:19.703Z,99160.35
2017-12-30T17:05:47.111Z,99151.14
2017-12-30T17:08:14.542Z,99150.62
2017-12-30T17:10:41.954Z,99154.91
2017-12-30T17:13:09.356Z,99166.79
2017-12-30T17:15:36.787Z,99158.30
2017-12-30T17:18:04.210Z,99156.03
2017-12-30T17:20:31.617Z,99159.06
2017-12-30T17:22:59.038Z,99153.98
2017-12-30T17:25:26.466Z,99146.84
2017-12-30T17:27:54.055Z,99148.05
2017-12-30T17:30:21.630Z,99146.94
2017-12-30T17:32:49.072Z,99131.92
2017-12-30T17:35:16.487Z,99123.50
2017-12-30T17:37:43.982Z,99123.93
2017-12-30T17:40:11.727Z,99131.62
2017-12-30T17:42:39.119Z,99139.68
2017-12-30T17:45:06.531Z,99123.34
2017-12-30T17:47:33.975Z,99132.69
2017-12-30T17:50:01.491Z,99134.39
2017-12-30T17:52:28.929Z,99134.00
2017-12-30T17:54:56.341Z,99123.53
2017-12-30T17:57:23.751Z,99133.17
2017-12-30T17:59:51.260Z,99134.59
2017-12-30T18:02:18.656Z,99131.27
2017-12-30T18:04:46.064Z,99115.23
2017-12-30T18:07:13.491Z,99121.08
2017-12-30T18:09:40.894Z,99122.73
2017-12-30T18:12:08.306Z,99119.05
2017-12-30T18:14:35.876Z,99110.16
2017-12-30T18:17:03.287Z,99130.00
2017-12-30T18:19:30.701Z,99111.56
2017-12-30T18:21:58.219Z,99113.68
2017-12-30T18:24:25.649Z,99112.16
2017-12-30T18:26:53.064Z,99124.07
2017-12-30T18:29:20.475Z,99131.71
2017-12-30T18:31:47.903Z,99122.22
2017-12-30T18:34:15.317Z,99108.90
2017-12-30T18:36:42.750Z,99104.49
2017-12-30T18:39:10.203Z,99125.68
2017-12-30T18:41:37.644Z,99120.43
2017-12-30T18:44:05.071Z,99111.15
2017-12-30T18:46:32.581Z,99109.11
2017-12-30T18:49:00.144Z,99109.22
2017-12-30T18:51:28.100Z,99116.05
2017-12-30T18:53:55.978Z,99106.61
2017-12-30T18:56:23.399Z,99121.44
2017-12-30T18:58:50.816Z,99118.22
2017-12-30T19:01:18.238Z,99103.38
2017-12-30T19:03:45.726Z,99108.30
2017-12-30T19:06:13.598Z,99123.87
2017-12-30T19:08:41.028Z,99118.80
2017-12-30T19:11:08.526Z,99121.94
2017-12-30T19:13:35.962Z,99131.36
2017-12-30T19:18:37.119Z,99134.61
2017-12-30T19:21:04.573Z,99124.80
2017-12-30T19:23:31.964Z,99124.39
2017-12-30T19:25:59.384Z,99123.78
2017-12-30T19:28:26.856Z,99118.31
2017-12-30T19:30:54.271Z,99117.77
2017-12-30T19:33:21.689Z,99107.20
2017-12-30T19:35:49.171Z,99107.25
2017-12-30T19:38:16.636Z,99107.33
2017-12-30T19:40:44.047Z,99109.08
2017-12-30T19:43:11.466Z,99104.88
2017-12-30T19:45:38.901Z,99081.67
2017-12-30T19:48:06.414Z,99083.77
2017-12-30T19:50:33.810Z,99083.38
2017-12-30T19:53:01.238Z,99091.97
2017-12-30T19:55:28.654Z,99087.14
2017-12-30T19:57:56.154Z,99094.80
2017-12-30T20:00:23.582Z,99105.56
2017-12-30T20:02:51.024Z,99101.24
2017-12-30T20:05:18.429Z,99102.20
2017-12-30T20:07:45.871Z,99112.56
2017-12-30T20:10:13.305Z,99103.50
2017-12-30T20:12:40.792Z,99111.03
2017-12-30T20:15:08.319Z,99106.98
2017-12-30T20:17:35.752Z,99100.71
2017-12-30T20:20:03.226Z,99100.17
2017-12-30T20:22:30.692Z,99108.20
2017-12-30T20:24:58.112Z,99084.29
2017-12-30T20:27:25.540Z,99085.33
2017-12-30T20:29:53.005Z,99083.84
2017-12-30T20:32:20.452Z,99082.77
2017-12-30T20:34:47.863Z,99080.61
2017-12-30T20:37:15.332Z,99085.57
2017-12-30T20:39:42.838Z,99083.11
2017-12-30T20:42:10.250Z,99087.23
2017-12-30T20:44:37.669Z,99087.41
2017-12-30T20:47:05.078Z,99081.75
2017-12-30T20:49:32.491Z,99082.38
2017-12-30T20:51:59.915Z,99100.55
2017-12-30T20:54:27.362Z,99110.84
2017-12-30T20:56:54.762Z,99116.45
2017-12-30T20:59:22.179Z,99099.45
2017-12-30T21:01:49.624Z,99088.20
2017-12-30T21:04:17.027Z,99090.27
2017-12-30T21:06:44.435Z,99087.91
2017-12-30T21:09:11.859Z,99083.73
2017-12-30T21:11:39.262Z,99080.37
2017-12-30T21:14:06.679Z,99082.66
2017-12-30T21:16:34.133Z,99078.25
2017-12-30T21:19:01.555Z,99074.78
2017-12-30T21:21:29.022Z,99082.56
2017-12-30T21:23:56.426Z,99084.66
2017-12-30T21:26:23.915Z,99092.61
2017-12-30T21:28:51.652Z,99095.30
2017-12-30T21:31:19.070Z,99105.44
2017-12-30T21:33:46.499Z,99115.78
2017-12-30T21:36:13.910Z,99110.76
2017-12-30T21:38:41.339Z,99112.34
2017-12-30T21:41:08.784Z,99113.02
2017-12-30T21:43:36.192Z,99117.50
2017-12-30T21:46:03.599Z,99128.59
2017-12-30T21:48:31.058Z,99117.02
2017-12-30T21:50:58.455Z,99109.64
2017-12-30T21:53:25.905Z,99123.69
2017-12-30T21:55:53.317Z,99134.73
2017-12-30T21:58:20.759Z,99137.39
2017-12-30T22:00:48.162Z,99136.94
2017-12-30T22:03:15.571Z,99135.86
2017-12-30T22:05:43.009Z,99143.14
2017-12-30T22:08:10.414Z,99148.27
2017-12-30T22:10:37.890Z,99156.06
2017-12-30T22:13:05.342Z,99157.98
2017-12-30T22:15:32.778Z,99154.78
2017-12-30T22:18:00.174Z,99164.69
2017-12-30T22:20:27.588Z,99160.19
2017-12-30T22:22:55.078Z,99160.23
2017-12-30T22:25:22.491Z,99171.88
2017-12-30T22:27:49.986Z,99183.52
2017-12-30T22:30:17.390Z,99191.61
2017-12-30T22:32:44.798Z,99194.98
2017-12-30T22:35:12.240Z,99196.90
2017-12-30T22:37:39.639Z,99199.22
2017-12-30T22:40:07.066Z,99212.31
2017-12-30T22:42:34.479Z,99231.65
2017-12-30T22:45:01.880Z,99228.20
2017-12-30T22:47:29.286Z,99228.66
2017-12-30T22:49:56.723Z,99241.59
2017-12-30T22:52:24.144Z,99247.43
2017-12-30T22:54:51.543Z,99253.59
2017-12-30T22:57:18.991Z,99257.38
2017-12-30T22:59:46.394Z,99273.27
2017-12-30T23:02:14.027Z,99278.75
2017-12-30T23:04:41.442Z,99277.48
2017-12-30T23:07:08.977Z,99282.83
2017-12-30T23:09:36.424Z,99285.56
2017-12-30T23:12:03.831Z,99287.15
2017-12-30T23:14:31.258Z,99278.64
2017-12-30T23:16:58.711Z,99287.88
2017-12-30T23:19:26.158Z,99296.20
2017-12-30T23:21:53.583Z,99299.61
2017-12-30T23:24:20.982Z,99303.91
2017-12-30T23:26:48.419Z,99308.47
2017-12-30T23:29:15.848Z,99318.77
2017-12-30T23:31:43.342Z,99311.09
2017-12-30T23:34:10.739Z,99310.35
2017-12-30T23:36:38.184Z,99332.14
2017-12-30T23:39:05.578Z,99338.90
2017-12-30T23:41:33.003Z,99349.81
2017-12-30T23:44:00.420Z,99346.12
2017-12-30T23:46:27.821Z,99357.58
2017-12-30T23:48:55.247Z,99365.09
2017-12-30T23:51:22.658Z,99364.04
2017-12-30T23:53:50.089Z,99365.25
2017-12-30T23:56:17.482Z,99372.88
2017-12-30T23:58:44.885Z,99386.50
